PWSweather.com
Personal Weather Stations
Station Observations
NYERIN
South Erin, Erin, NY 14838-9545

South ErinErin, NY 14838-9545

Lat: 42.150605, Lon: -76.654038

Elevation: 1663

Station Type: Davis VP Pro II

http://southerin-ny.org/wx.php

Latest ConditionsUpdated 5:02:01 PM EDT Wednesday, Jul 27, 2016
Currently Today's Max Today's Min Today's Average
Temperature 84.1°F28.9°C 85.0°F29.4°C 59.3°F15.2°C 70.6°F21.4°C
Dew Point 60.5°F15.8°C 68.0°F20.0°C 56.6°F13.7°C 61.3°F16.3°C
Winds 0.1 mph N0.2 kmh N 7.1 mph NW11.4 kmh NW - 1.2 mph 1.9 kmh
Wind Gusts -- 11.0 mph17.7 kmh - -
Humidity 45% 100% 40% 77%
Pressure 29.88 in1011.9 mb 29.96 in1014.6 mb 29.88 in1011.9 mb -
Hour Temp Dew Point Humidity Winds Wind Gusts Pressure Precip Precip Rate Daily Precip Total
05:02 PM 84.1°F28.9°C 60.5°F15.8°C 45% 0.1 mph N0.2 kmh N -- 29.88 in1011.9 mb - 0.00 in0.0 mm 0.00 in0.0 mm
04:52 PM 84.3°F29.1°C 60.6°F15.9°C 45% 3.2 mph N5.1 kmh N 5.0 mph8.0 kmh 29.89 in1012.2 mb - 0.00 in0.0 mm 0.00 in0.0 mm
04:42 PM 84.5°F29.2°C 58.2°F14.6°C 41% 1.3 mph NW2.1 kmh NW 2.0 mph3.2 kmh 29.89 in1012.2 mb - 0.00 in0.0 mm 0.00 in0.0 mm
04:32 PM 84.7°F29.3°C 58.4°F14.7°C 41% 0.2 mph WSW0.3 kmh WSW -- 29.89 in1012.2 mb - 0.00 in0.0 mm 0.00 in0.0 mm
04:22 PM 85.0°F29.4°C 60.0°F15.6°C 43% 1.8 mph NNW2.9 kmh NNW 6.0 mph9.7 kmh 29.89 in1012.2 mb - 0.00 in0.0 mm 0.00 in0.0 mm
04:12 PM 84.5°F29.2°C 57.5°F14.2°C 40% Calm Calm 1.0 mph1.6 kmh 29.89 in1012.2 mb - 0.00 in0.0 mm 0.00 in0.0 mm
04:02 PM 84.7°F29.3°C 59.1°F15.1°C 42% 4.6 mph N7.4 kmh N 5.0 mph8.0 kmh 29.90 in1012.5 mb - 0.00 in0.0 mm 0.00 in0.0 mm
03:52 PM 85.0°F29.4°C 59.3°F15.2°C 42% 3.9 mph WSW6.3 kmh WSW 8.0 mph12.9 kmh 29.89 in1012.2 mb - 0.00 in0.0 mm 0.00 in0.0 mm
03:42 PM 84.3°F29.1°C 58.7°F14.8°C 42% 1.0 mph NNW1.6 kmh NNW 3.0 mph4.8 kmh 29.90 in1012.5 mb - 0.00 in0.0 mm 0.00 in0.0 mm
03:32 PM 84.6°F29.2°C 59.6°F15.3°C 43% 0.9 mph NW1.4 kmh NW 3.0 mph4.8 kmh 29.90 in1012.5 mb - 0.00 in0.0 mm 0.00 in0.0 mm
03:22 PM 83.5°F28.6°C 56.6°F13.7°C 40% 0.8 mph NNW1.3 kmh NNW 3.0 mph4.8 kmh 29.90 in1012.5 mb - 0.00 in0.0 mm 0.00 in0.0 mm
03:12 PM 83.4°F28.6°C 59.2°F15.1°C 44% 3.0 mph N4.8 kmh N 5.0 mph8.0 kmh 29.91 in1012.9 mb - 0.00 in0.0 mm 0.00 in0.0 mm
03:02 PM 83.8°F28.8°C 58.3°F14.6°C 42% 0.5 mph NW0.8 kmh NW 8.0 mph12.9 kmh 29.91 in1012.9 mb - 0.00 in0.0 mm 0.00 in0.0 mm
02:52 PM 84.0°F28.9°C 59.8°F15.4°C 44% 3.2 mph WSW5.1 kmh WSW 7.0 mph11.3 kmh 29.91 in1012.9 mb - 0.00 in0.0 mm 0.00 in0.0 mm
02:42 PM 83.6°F28.7°C 58.7°F14.8°C 43% 2.1 mph SW3.4 kmh SW 5.0 mph8.0 kmh 29.92 in1013.2 mb - 0.00 in0.0 mm 0.00 in0.0 mm
02:32 PM 83.4°F28.6°C 58.6°F14.8°C 43% 1.8 mph NW2.9 kmh NW 3.0 mph4.8 kmh 29.92 in1013.2 mb - 0.00 in0.0 mm 0.00 in0.0 mm
02:22 PM 83.3°F28.5°C 61.6°F16.4°C 48% 1.8 mph WSW2.9 kmh WSW 4.0 mph6.4 kmh 29.92 in1013.2 mb - 0.00 in0.0 mm 0.00 in0.0 mm
02:12 PM 82.2°F27.9°C 58.7°F14.8°C 45% 5.5 mph N8.9 kmh N 9.0 mph14.5 kmh 29.92 in1013.2 mb - 0.00 in0.0 mm 0.00 in0.0 mm
02:02 PM 83.2°F28.4°C 59.0°F15.0°C 44% 2.7 mph NNW4.3 kmh NNW 11.0 mph17.7 kmh 29.93 in1013.5 mb - 0.00 in0.0 mm 0.00 in0.0 mm
01:52 PM 82.7°F28.2°C 60.5°F15.8°C 47% 1.6 mph WNW2.6 kmh WNW 3.0 mph4.8 kmh 29.93 in1013.5 mb - 0.00 in0.0 mm 0.00 in0.0 mm
01:42 PM 82.0°F27.8°C 57.3°F14.1°C 43% 3.4 mph WNW5.5 kmh WNW 9.0 mph14.5 kmh 29.93 in1013.5 mb - 0.00 in0.0 mm 0.00 in0.0 mm
01:32 PM 81.8°F27.7°C 58.4°F14.7°C 45% 0.3 mph NNW0.5 kmh NNW 1.0 mph1.6 kmh 29.93 in1013.5 mb - 0.00 in0.0 mm 0.00 in0.0 mm
01:22 PM 80.8°F27.1°C 60.4°F15.8°C 50% 2.0 mph WSW3.2 kmh WSW 7.0 mph11.3 kmh 29.94 in1013.9 mb - 0.00 in0.0 mm 0.00 in0.0 mm
01:12 PM 81.8°F27.7°C 59.0°F15.0°C 46% 1.1 mph NW1.8 kmh NW 3.0 mph4.8 kmh 29.94 in1013.9 mb - 0.00 in0.0 mm 0.00 in0.0 mm
01:02 PM 81.7°F27.6°C 57.0°F13.9°C 43% 2.9 mph NW4.7 kmh NW 6.0 mph9.7 kmh 29.94 in1013.9 mb - 0.00 in0.0 mm 0.00 in0.0 mm
12:52 PM 81.4°F27.4°C 62.1°F16.7°C 52% 0.6 mph WNW1.0 kmh WNW -- 29.94 in1013.9 mb - 0.00 in0.0 mm 0.00 in0.0 mm
12:42 PM 80.8°F27.1°C 61.0°F16.1°C 51% 3.0 mph W4.8 kmh W 7.0 mph11.3 kmh 29.94 in1013.9 mb - 0.00 in0.0 mm 0.00 in0.0 mm
12:32 PM 80.3°F26.8°C 64.2°F17.9°C 58% 6.1 mph W9.8 kmh W 8.0 mph12.9 kmh 29.94 in1013.9 mb - 0.00 in0.0 mm 0.00 in0.0 mm
12:22 PM 78.5°F25.8°C 64.0°F17.8°C 61% 3.0 mph SSW4.8 kmh SSW 5.0 mph8.0 kmh 29.95 in1014.2 mb - 0.00 in0.0 mm 0.00 in0.0 mm
12:12 PM 78.4°F25.8°C 65.2°F18.4°C 64% 1.3 mph WNW2.1 kmh WNW 8.0 mph12.9 kmh 29.95 in1014.2 mb - 0.00 in0.0 mm 0.00 in0.0 mm
12:02 PM 78.1°F25.6°C 64.0°F17.8°C 62% 4.2 mph NW6.8 kmh NW 7.0 mph11.3 kmh 29.95 in1014.2 mb - 0.00 in0.0 mm 0.00 in0.0 mm
11:52 AM 78.6°F25.9°C 62.1°F16.7°C 57% 2.5 mph NW4.0 kmh NW 3.0 mph4.8 kmh 29.95 in1014.2 mb - 0.00 in0.0 mm 0.00 in0.0 mm
11:42 AM 78.9°F26.1°C 62.4°F16.9°C 57% 6.6 mph SW10.6 kmh SW 8.0 mph12.9 kmh 29.95 in1014.2 mb - 0.00 in0.0 mm 0.00 in0.0 mm
11:32 AM 78.9°F26.1°C 63.8°F17.7°C 60% 1.4 mph W2.3 kmh W 8.0 mph12.9 kmh 29.95 in1014.2 mb - 0.00 in0.0 mm 0.00 in0.0 mm
11:22 AM 77.2°F25.1°C 62.3°F16.8°C 60% 4.2 mph WNW6.8 kmh WNW 8.0 mph12.9 kmh 29.96 in1014.6 mb - 0.00 in0.0 mm 0.00 in0.0 mm
11:12 AM 78.5°F25.8°C 63.5°F17.5°C 60% 7.1 mph NW11.4 kmh NW 10.0 mph16.1 kmh 29.95 in1014.2 mb - 0.00 in0.0 mm 0.00 in0.0 mm
11:02 AM 79.1°F26.2°C 64.9°F18.3°C 62% 1.6 mph W2.6 kmh W 3.0 mph4.8 kmh 29.95 in1014.2 mb - 0.00 in0.0 mm 0.00 in0.0 mm
10:52 AM 79.2°F26.2°C 66.0°F18.9°C 64% 1.4 mph WSW2.3 kmh WSW 4.0 mph6.4 kmh 29.95 in1014.2 mb - 0.00 in0.0 mm 0.00 in0.0 mm
10:42 AM 78.6°F25.9°C 66.3°F19.1°C 66% 0.3 mph WSW0.5 kmh WSW 6.0 mph9.7 kmh 29.95 in1014.2 mb - 0.00 in0.0 mm 0.00 in0.0 mm
10:32 AM 77.9°F25.5°C 65.6°F18.7°C 66% 2.3 mph SSW3.7 kmh SSW 6.0 mph9.7 kmh 29.95 in1014.2 mb - 0.00 in0.0 mm 0.00 in0.0 mm
10:22 AM 77.6°F25.3°C 65.8°F18.8°C 67% 2.2 mph SSW3.5 kmh SSW 5.0 mph8.0 kmh 29.95 in1014.2 mb - 0.00 in0.0 mm 0.00 in0.0 mm
10:12 AM 76.8°F24.9°C 65.0°F18.3°C 67% 4.3 mph WNW6.9 kmh WNW 6.0 mph9.7 kmh 29.95 in1014.2 mb - 0.00 in0.0 mm 0.00 in0.0 mm
10:02 AM 76.3°F24.6°C 65.4°F18.6°C 69% 3.2 mph W5.1 kmh W 8.0 mph12.9 kmh 29.95 in1014.2 mb - 0.00 in0.0 mm 0.00 in0.0 mm
09:52 AM 75.6°F24.2°C 65.1°F18.4°C 70% 3.1 mph WNW5.0 kmh WNW 4.0 mph6.4 kmh 29.95 in1014.2 mb - 0.00 in0.0 mm 0.00 in0.0 mm
09:42 AM 74.7°F23.7°C 65.1°F18.4°C 72% 0.6 mph WSW1.0 kmh WSW 4.0 mph6.4 kmh 29.95 in1014.2 mb - 0.00 in0.0 mm 0.00 in0.0 mm
09:32 AM 73.9°F23.3°C 65.5°F18.6°C 75% 4.7 mph WSW7.6 kmh WSW 6.0 mph9.7 kmh 29.95 in1014.2 mb - 0.00 in0.0 mm 0.00 in0.0 mm
09:22 AM 72.8°F22.7°C 65.5°F18.6°C 78% 1.4 mph W2.3 kmh W 2.0 mph3.2 kmh 29.95 in1014.2 mb - 0.00 in0.0 mm 0.00 in0.0 mm
09:12 AM 71.8°F22.1°C 66.0°F18.9°C 82% 1.3 mph WSW2.1 kmh WSW 2.0 mph3.2 kmh 29.96 in1014.6 mb - 0.00 in0.0 mm 0.00 in0.0 mm
09:02 AM 70.6°F21.4°C 67.2°F19.6°C 89% 2.2 mph WSW3.5 kmh WSW 3.0 mph4.8 kmh 29.96 in1014.6 mb - 0.00 in0.0 mm 0.00 in0.0 mm
08:52 AM 69.2°F20.7°C 68.0°F20.0°C 96% Calm Calm -- 29.96 in1014.6 mb - 0.00 in0.0 mm 0.00 in0.0 mm
08:42 AM 67.8°F19.9°C 67.8°F19.9°C 100% 0.2 mph W0.3 kmh W 2.0 mph3.2 kmh 29.96 in1014.6 mb - 0.00 in0.0 mm 0.00 in0.0 mm
08:32 AM 66.6°F19.2°C 66.6°F19.2°C 100% 0.2 mph WNW0.3 kmh WNW 1.0 mph1.6 kmh 29.96 in1014.6 mb - 0.00 in0.0 mm 0.00 in0.0 mm
08:22 AM 65.3°F18.5°C 65.3°F18.5°C 100% 0.4 mph WNW0.6 kmh WNW 2.0 mph3.2 kmh 29.96 in1014.6 mb - 0.00 in0.0 mm 0.00 in0.0 mm
08:12 AM 64.1°F17.8°C 64.1°F17.8°C 100% Calm Calm -- 29.96 in1014.6 mb - 0.00 in0.0 mm 0.00 in0.0 mm
08:02 AM 63.2°F17.3°C 63.2°F17.3°C 100% 1.1 mph WNW1.8 kmh WNW 2.0 mph3.2 kmh 29.96 in1014.6 mb - 0.00 in0.0 mm 0.00 in0.0 mm
07:52 AM 62.3°F16.8°C 62.3°F16.8°C 100% 0.6 mph WNW1.0 kmh WNW 1.0 mph1.6 kmh 29.96 in1014.6 mb - 0.00 in0.0 mm 0.00 in0.0 mm
07:42 AM 61.6°F16.4°C 61.6°F16.4°C 100% Calm Calm -- 29.96 in1014.6 mb - 0.00 in0.0 mm 0.00 in0.0 mm
07:32 AM 61.0°F16.1°C 61.0°F16.1°C 100% Calm Calm -- 29.96 in1014.6 mb - 0.00 in0.0 mm 0.00 in0.0 mm
07:22 AM 60.4°F15.8°C 60.4°F15.8°C 100% Calm Calm -- 29.96 in1014.6 mb - 0.00 in0.0 mm 0.00 in0.0 mm
07:12 AM 59.9°F15.5°C 59.9°F15.5°C 100% Calm Calm -- 29.96 in1014.6 mb - 0.00 in0.0 mm 0.00 in0.0 mm
07:02 AM 59.6°F15.3°C 59.6°F15.3°C 100% Calm Calm -- 29.96 in1014.6 mb - 0.00 in0.0 mm 0.00 in0.0 mm
06:52 AM 59.5°F15.3°C 59.5°F15.3°C 100% Calm Calm -- 29.96 in1014.6 mb - 0.00 in0.0 mm 0.00 in0.0 mm
06:42 AM 59.3°F15.2°C 59.3°F15.2°C 100% Calm Calm -- 29.96 in1014.6 mb - 0.00 in0.0 mm 0.00 in0.0 mm
06:32 AM 59.3°F15.2°C 59.3°F15.2°C 100% Calm Calm -- 29.96 in1014.6 mb - 0.00 in0.0 mm 0.00 in0.0 mm
06:22 AM 59.3°F15.2°C 59.3°F15.2°C 100% Calm Calm -- 29.95 in1014.2 mb - 0.00 in0.0 mm 0.00 in0.0 mm
06:12 AM 59.3°F15.2°C 59.3°F15.2°C 100% Calm Calm -- 29.95 in1014.2 mb - 0.00 in0.0 mm 0.00 in0.0 mm
06:02 AM 59.5°F15.3°C 59.5°F15.3°C 100% Calm Calm -- 29.95 in1014.2 mb - 0.00 in0.0 mm 0.00 in0.0 mm
05:52 AM 59.8°F15.4°C 59.8°F15.4°C 100% Calm Calm -- 29.94 in1013.9 mb - 0.00 in0.0 mm 0.00 in0.0 mm
05:42 AM 59.9°F15.5°C 59.9°F15.5°C 100% Calm Calm -- 29.94 in1013.9 mb - 0.00 in0.0 mm 0.00 in0.0 mm
05:32 AM 60.1°F15.6°C 60.1°F15.6°C 100% Calm Calm -- 29.94 in1013.9 mb - 0.00 in0.0 mm 0.00 in0.0 mm
05:22 AM 60.1°F15.6°C 60.1°F15.6°C 100% Calm Calm -- 29.94 in1013.9 mb - 0.00 in0.0 mm 0.00 in0.0 mm
05:12 AM 59.9°F15.5°C 59.9°F15.5°C 100% Calm Calm -- 29.94 in1013.9 mb - 0.00 in0.0 mm 0.00 in0.0 mm
05:02 AM 60.1°F15.6°C 60.1°F15.6°C 100% 0.1 mph NW0.2 kmh NW 1.0 mph1.6 kmh 29.94 in1013.9 mb - 0.00 in0.0 mm 0.00 in0.0 mm
04:52 AM 60.1°F15.6°C 60.1°F15.6°C 100% Calm Calm -- 29.93 in1013.5 mb - 0.00 in0.0 mm 0.00 in0.0 mm
04:42 AM 60.1°F15.6°C 60.1°F15.6°C 100% Calm Calm -- 29.93 in1013.5 mb - 0.00 in0.0 mm 0.00 in0.0 mm
04:32 AM 59.9°F15.5°C 59.6°F15.3°C 99% Calm Calm -- 29.93 in1013.5 mb - 0.00 in0.0 mm 0.00 in0.0 mm
04:22 AM 60.1°F15.6°C 59.8°F15.4°C 99% Calm Calm -- 29.93 in1013.5 mb - 0.00 in0.0 mm 0.00 in0.0 mm
04:12 AM 60.3°F15.7°C 60.0°F15.6°C 99% Calm Calm -- 29.93 in1013.5 mb - 0.00 in0.0 mm 0.00 in0.0 mm
04:02 AM 60.5°F15.8°C 60.2°F15.7°C 99% Calm Calm -- 29.93 in1013.5 mb - 0.00 in0.0 mm 0.00 in0.0 mm
03:52 AM 60.5°F15.8°C 60.2°F15.7°C 99% Calm Calm -- 29.93 in1013.5 mb - 0.00 in0.0 mm 0.00 in0.0 mm
03:42 AM 60.7°F15.9°C 60.4°F15.8°C 99% Calm Calm -- 29.94 in1013.9 mb - 0.00 in0.0 mm 0.00 in0.0 mm
03:32 AM 60.9°F16.1°C 60.3°F15.7°C 98% Calm Calm -- 29.94 in1013.9 mb - 0.00 in0.0 mm 0.00 in0.0 mm
03:22 AM 61.0°F16.1°C 60.4°F15.8°C 98% Calm Calm -- 29.94 in1013.9 mb - 0.00 in0.0 mm 0.00 in0.0 mm
03:12 AM 61.3°F16.3°C 60.7°F15.9°C 98% Calm Calm -- 29.94 in1013.9 mb - 0.00 in0.0 mm 0.00 in0.0 mm
03:02 AM 61.5°F16.4°C 60.9°F16.1°C 98% Calm Calm -- 29.94 in1013.9 mb - 0.00 in0.0 mm 0.00 in0.0 mm
02:52 AM 61.6°F16.4°C 60.7°F15.9°C 97% Calm Calm -- 29.94 in1013.9 mb - 0.00 in0.0 mm 0.00 in0.0 mm
02:42 AM 61.8°F16.6°C 60.9°F16.1°C 97% Calm Calm -- 29.93 in1013.5 mb - 0.00 in0.0 mm 0.00 in0.0 mm
02:32 AM 61.8°F16.6°C 60.9°F16.1°C 97% Calm Calm -- 29.93 in1013.5 mb - 0.00 in0.0 mm 0.00 in0.0 mm
02:22 AM 61.8°F16.6°C 60.6°F15.9°C 96% Calm Calm -- 29.93 in1013.5 mb - 0.00 in0.0 mm 0.00 in0.0 mm
02:12 AM 62.0°F16.7°C 60.6°F15.9°C 95% Calm Calm -- 29.93 in1013.5 mb - 0.00 in0.0 mm 0.00 in0.0 mm
02:02 AM 62.1°F16.7°C 60.7°F15.9°C 95% Calm Calm -- 29.93 in1013.5 mb - 0.00 in0.0 mm 0.00 in0.0 mm
01:52 AM 62.1°F16.7°C 60.4°F15.8°C 94% Calm Calm -- 29.93 in1013.5 mb - 0.00 in0.0 mm 0.00 in0.0 mm
01:42 AM 62.3°F16.8°C 60.6°F15.9°C 94% Calm Calm -- 29.93 in1013.5 mb - 0.00 in0.0 mm 0.00 in0.0 mm
01:32 AM 62.4°F16.9°C 60.3°F15.7°C 93% Calm Calm -- 29.93 in1013.5 mb - 0.00 in0.0 mm 0.00 in0.0 mm
01:22 AM 62.6°F17.0°C 60.5°F15.8°C 93% Calm Calm -- 29.93 in1013.5 mb - 0.00 in0.0 mm 0.00 in0.0 mm
01:12 AM 62.7°F17.1°C 60.3°F15.7°C 92% Calm Calm -- 29.93 in1013.5 mb - 0.00 in0.0 mm 0.00 in0.0 mm
01:02 AM 62.9°F17.2°C 60.5°F15.8°C 92% Calm Calm -- 29.94 in1013.9 mb - 0.00 in0.0 mm 0.00 in0.0 mm
12:52 AM 63.1°F17.3°C 60.7°F15.9°C 92% Calm Calm -- 29.94 in1013.9 mb - 0.00 in0.0 mm 0.00 in0.0 mm
12:42 AM 63.4°F17.4°C 61.0°F16.1°C 92% Calm Calm -- 29.94 in1013.9 mb - 0.00 in0.0 mm 0.00 in0.0 mm
12:32 AM 63.5°F17.5°C 60.8°F16.0°C 91% Calm Calm -- 29.94 in1013.9 mb - 0.00 in0.0 mm 0.00 in0.0 mm
12:22 AM 63.7°F17.6°C 61.0°F16.1°C 91% Calm Calm -- 29.94 in1013.9 mb - 0.00 in0.0 mm 0.00 in0.0 mm
12:12 AM 63.9°F17.7°C 61.2°F16.2°C 91% Calm Calm -- 29.94 in1013.9 mb - 0.00 in0.0 mm 0.00 in0.0 mm
12:02 AM 64.2°F17.9°C 61.5°F16.4°C 91% Calm Calm -- 29.94 in1013.9 mb - 0.00 in0.0 mm 0.00 in0.0 mm